createdAt,value
2018-08-20T00:01:31.053Z,60.20
2018-08-20T00:04:03.174Z,60.18
2018-08-20T00:07:04.690Z,60.62
2018-08-20T00:09:38.568Z,60.18
2018-08-20T00:12:08.159Z,60.11
2018-08-20T00:14:36.695Z,60.08
2018-08-20T00:17:05.245Z,60.21
2018-08-20T00:19:33.574Z,60.34
2018-08-20T00:22:02.693Z,60.24
2018-08-20T00:24:31.035Z,61.29
2018-08-20T00:27:00.839Z,60.48
2018-08-20T00:29:29.325Z,61.48
2018-08-20T00:31:57.651Z,61.66
2018-08-20T00:34:25.994Z,60.76
2018-08-20T00:36:54.740Z,60.93
2018-08-20T00:39:23.072Z,60.33
2018-08-20T00:41:51.559Z,60.97
2018-08-20T00:44:19.897Z,60.56
2018-08-20T00:46:48.215Z,60.83
2018-08-20T00:49:17.213Z,60.34
2018-08-20T00:51:45.963Z,60.46
2018-08-20T00:54:14.495Z,60.55
2018-08-20T00:56:42.906Z,61.78
2018-08-20T00:59:11.281Z,61.38
2018-08-20T01:01:39.615Z,61.51
2018-08-20T01:04:07.940Z,60.93
2018-08-20T01:06:36.371Z,60.88
2018-08-20T01:09:06.435Z,62.45
2018-08-20T01:11:34.794Z,60.60
2018-08-20T01:14:03.180Z,60.81
2018-08-20T01:16:32.451Z,60.47
2018-08-20T01:19:00.776Z,61.15
2018-08-20T01:21:29.104Z,60.64
2018-08-20T01:23:57.437Z,60.48
2018-08-20T01:26:25.788Z,60.84
2018-08-20T01:28:54.120Z,61.18
2018-08-20T01:31:22.430Z,61.90
2018-08-20T01:33:50.756Z,60.63
2018-08-20T01:36:19.066Z,60.75
2018-08-20T01:38:47.397Z,60.53
2018-08-20T01:41:15.712Z,61.14
2018-08-20T01:43:44.048Z,60.34
2018-08-20T01:46:12.372Z,60.75
2018-08-20T01:48:40.693Z,60.97
2018-08-20T01:51:09.037Z,60.52
2018-08-20T01:53:37.371Z,60.73
2018-08-20T01:56:05.697Z,60.51
2018-08-20T01:58:34.024Z,60.79
2018-08-20T02:01:02.328Z,60.20
2018-08-20T02:03:30.986Z,60.54
2018-08-20T02:05:59.342Z,61.00
2018-08-20T02:08:27.764Z,60.75
2018-08-20T02:10:56.107Z,60.60
2018-08-20T02:13:24.833Z,60.80
2018-08-20T02:15:53.207Z,60.87
2018-08-20T02:18:21.561Z,61.49
2018-08-20T02:20:49.869Z,61.06
2018-08-20T02:23:18.196Z,60.63
2018-08-20T02:25:46.531Z,60.96
2018-08-20T02:28:14.877Z,61.08
2018-08-20T02:30:43.196Z,60.73
2018-08-20T02:33:11.508Z,60.95
2018-08-20T02:35:39.862Z,61.64
2018-08-20T02:38:08.214Z,60.58
2018-08-20T02:40:36.568Z,61.08
2018-08-20T02:43:04.875Z,60.75
2018-08-20T02:45:33.260Z,61.11
2018-08-20T02:48:01.578Z,60.79
2018-08-20T02:50:29.902Z,61.37
2018-08-20T02:52:58.241Z,61.79
2018-08-20T02:55:26.574Z,61.05
2018-08-20T02:57:55.476Z,60.48
2018-08-20T03:00:23.836Z,61.53
2018-08-20T03:02:52.170Z,61.42
2018-08-20T03:05:20.501Z,61.29
2018-08-20T03:07:48.840Z,61.65
2018-08-20T03:10:17.178Z,61.34
2018-08-20T03:12:45.509Z,60.91
2018-08-20T03:15:14.295Z,62.18
2018-08-20T03:17:42.649Z,62.04
2018-08-20T03:20:11.871Z,61.67
2018-08-20T03:22:40.181Z,61.56
2018-08-20T03:25:08.746Z,61.73
2018-08-20T03:27:37.311Z,61.90
2018-08-20T03:30:06.828Z,61.72
2018-08-20T03:32:35.198Z,61.94
2018-08-20T03:35:03.547Z,61.51
2018-08-20T03:37:31.892Z,62.43
2018-08-20T03:40:00.242Z,61.71
2018-08-20T03:42:28.602Z,62.05
2018-08-20T03:44:56.957Z,61.81
2018-08-20T03:47:25.307Z,61.95
2018-08-20T03:49:53.680Z,61.99
2018-08-20T03:52:22.065Z,62.45
2018-08-20T03:54:50.472Z,62.29
2018-08-20T03:57:18.844Z,61.89
2018-08-20T03:59:47.255Z,62.19
2018-08-20T04:02:15.588Z,62.40
2018-08-20T04:04:43.917Z,62.71
2018-08-20T04:07:12.263Z,62.63
2018-08-20T04:09:40.602Z,62.74
2018-08-20T04:12:08.950Z,62.86
2018-08-20T04:14:37.310Z,62.46
2018-08-20T04:17:05.637Z,62.84
2018-08-20T04:19:33.989Z,63.62
2018-08-20T04:22:02.464Z,62.45
2018-08-20T04:24:30.822Z,64.43
2018-08-20T04:26:59.168Z,64.42
2018-08-20T04:29:27.531Z,63.69
2018-08-20T04:31:55.878Z,64.14
2018-08-20T04:34:24.232Z,64.09
2018-08-20T04:36:52.580Z,64.10
2018-08-20T04:39:20.959Z,65.29
2018-08-20T04:41:49.304Z,65.06
2018-08-20T04:44:17.684Z,64.88
2018-08-20T04:46:46.046Z,65.02
2018-08-20T04:49:14.432Z,66.03
2018-08-20T04:51:42.780Z,64.48
2018-08-20T04:54:11.149Z,64.55
2018-08-20T04:56:39.497Z,65.37
2018-08-20T04:59:07.856Z,65.40
2018-08-20T05:01:36.199Z,66.15
2018-08-20T05:04:04.605Z,65.44
2018-08-20T05:06:33.464Z,65.92
2018-08-20T05:09:01.845Z,65.19
2018-08-20T05:11:30.193Z,66.68
2018-08-20T05:13:59.564Z,66.27
2018-08-20T05:16:27.934Z,66.68
2018-08-20T05:18:56.345Z,65.95
2018-08-20T05:21:24.663Z,66.14
2018-08-20T05:23:53.010Z,65.96
2018-08-20T05:26:21.590Z,66.24
2018-08-20T05:28:49.949Z,66.36
2018-08-20T05:31:18.320Z,66.73
2018-08-20T05:33:46.627Z,66.58
2018-08-20T05:36:14.981Z,65.39
2018-08-20T05:38:43.368Z,65.91
2018-08-20T05:41:11.738Z,66.77
2018-08-20T05:43:40.044Z,66.26
2018-08-20T05:46:08.421Z,65.45
2018-08-20T05:48:36.802Z,65.20
2018-08-20T05:51:05.358Z,65.01
2018-08-20T05:53:33.719Z,64.41
2018-08-20T05:56:02.070Z,64.18
2018-08-20T05:58:30.419Z,65.07
2018-08-20T06:00:58.799Z,64.18
2018-08-20T06:03:27.138Z,63.62
2018-08-20T06:05:55.488Z,63.73
2018-08-20T06:08:23.913Z,63.47
2018-08-20T06:10:52.349Z,63.78
2018-08-20T06:13:20.694Z,63.39
2018-08-20T06:15:49.063Z,63.71
2018-08-20T06:18:17.423Z,63.26
2018-08-20T06:20:45.754Z,63.05
2018-08-20T06:23:14.068Z,62.54
2018-08-20T06:25:42.412Z,63.10
2018-08-20T06:28:10.794Z,62.17
2018-08-20T06:30:39.178Z,62.18
2018-08-20T06:33:07.508Z,61.92
2018-08-20T06:35:35.885Z,61.58
2018-08-20T06:38:04.285Z,61.94
2018-08-20T06:40:32.629Z,61.08
2018-08-20T06:43:01.070Z,61.08
2018-08-20T06:45:29.448Z,61.16
2018-08-20T06:47:57.862Z,60.11
2018-08-20T06:50:26.201Z,60.66
2018-08-20T06:52:54.529Z,60.56
2018-08-20T06:55:22.897Z,60.36
2018-08-20T06:57:51.238Z,59.69
2018-08-20T07:01:44.018Z,59.05
2018-08-20T07:04:12.383Z,59.95
2018-08-20T07:06:40.749Z,59.59
2018-08-20T07:09:09.308Z,59.00
2018-08-20T07:11:38.274Z,58.97
2018-08-20T07:14:06.615Z,58.98
2018-08-20T07:16:34.993Z,58.40
2018-08-20T07:19:04.017Z,58.67
2018-08-20T07:21:32.334Z,58.60
2018-08-20T07:24:00.712Z,58.77
2018-08-20T07:26:29.705Z,58.32
2018-08-20T07:28:58.053Z,58.73
2018-08-20T07:31:26.432Z,58.76
2018-08-20T07:33:54.784Z,58.55
2018-08-20T07:36:23.153Z,58.55
2018-08-20T07:38:51.536Z,58.13
2018-08-20T07:41:19.910Z,58.18
2018-08-20T07:43:48.251Z,58.17
2018-08-20T07:46:16.663Z,57.89
2018-08-20T07:48:45.010Z,58.44
2018-08-20T07:51:13.363Z,57.96
2018-08-20T07:53:41.700Z,58.17
2018-08-20T07:56:10.353Z,57.95
2018-08-20T07:58:38.693Z,58.04
2018-08-20T08:01:07.031Z,58.27
2018-08-20T08:03:35.439Z,57.88
2018-08-20T08:06:04.994Z,57.89
2018-08-20T08:08:33.697Z,58.32
2018-08-20T08:11:02.095Z,57.92
2018-08-20T08:13:30.446Z,58.15
2018-08-20T08:15:58.857Z,58.35
2018-08-20T08:18:27.242Z,58.37
2018-08-20T08:20:55.602Z,58.75
2018-08-20T08:23:23.947Z,58.16
2018-08-20T08:25:52.309Z,58.73
2018-08-20T08:28:20.653Z,59.20
2018-08-20T08:30:48.982Z,58.74
2018-08-20T08:33:17.352Z,58.71
2018-08-20T08:35:45.700Z,58.84
2018-08-20T08:38:14.075Z,60.00
2018-08-20T08:40:42.443Z,58.40
2018-08-20T08:43:10.820Z,58.73
2018-08-20T08:45:39.187Z,59.02
2018-08-20T08:48:07.580Z,60.12
2018-08-20T08:50:35.922Z,59.46
2018-08-20T08:53:04.373Z,58.97
2018-08-20T08:55:32.744Z,59.14
2018-08-20T08:58:01.125Z,59.76
2018-08-20T09:00:29.498Z,59.30
2018-08-20T09:02:57.823Z,59.27
2018-08-20T09:05:26.233Z,60.37
2018-08-20T09:07:54.601Z,60.40
2018-08-20T09:10:22.981Z,59.91
2018-08-20T09:12:51.301Z,59.50
2018-08-20T09:15:19.640Z,59.54
2018-08-20T09:17:48.046Z,59.23
2018-08-20T09:20:17.577Z,59.42
2018-08-20T09:22:45.946Z,59.08
2018-08-20T09:25:14.966Z,59.38
2018-08-20T09:27:44.358Z,58.67
2018-08-20T09:30:18.492Z,59.12
2018-08-20T09:32:47.482Z,59.02
2018-08-20T09:35:15.921Z,58.92
2018-08-20T09:37:44.310Z,58.73
2018-08-20T09:40:13.099Z,58.39
2018-08-20T09:42:42.009Z,58.32
2018-08-20T09:45:10.798Z,58.11
2018-08-20T09:47:40.000Z,57.44
2018-08-20T09:50:11.349Z,57.74
2018-08-20T09:52:39.707Z,57.98
2018-08-20T09:55:08.812Z,57.22
2018-08-20T09:57:37.181Z,57.60
2018-08-20T10:00:09.537Z,57.93
2018-08-20T10:02:37.861Z,57.80
2018-08-20T10:05:06.231Z,58.72
2018-08-20T10:07:34.650Z,58.26
2018-08-20T10:10:02.970Z,58.29
2018-08-20T10:12:31.328Z,57.66
2018-08-20T10:14:59.649Z,57.93
2018-08-20T10:17:28.007Z,58.61
2018-08-20T10:19:56.349Z,58.48
2018-08-20T10:22:24.680Z,58.00
2018-08-20T10:24:53.020Z,58.10
2018-08-20T10:27:21.335Z,58.06
2018-08-20T10:29:49.677Z,57.67
2018-08-20T10:32:18.075Z,57.76
2018-08-20T10:34:46.415Z,58.33
2018-08-20T10:37:14.749Z,57.59
2018-08-20T10:39:43.085Z,58.07
2018-08-20T10:42:11.555Z,57.92
2018-08-20T10:44:45.317Z,57.96
2018-08-20T10:47:13.640Z,58.13
2018-08-20T10:49:41.993Z,57.73
2018-08-20T10:52:10.666Z,57.31
2018-08-20T10:54:39.027Z,57.13
2018-08-20T10:57:07.737Z,55.83
2018-08-20T10:59:36.532Z,56.43
2018-08-20T11:02:04.964Z,55.04
2018-08-20T11:04:33.276Z,54.84
2018-08-20T11:07:01.736Z,54.52
2018-08-20T11:09:30.072Z,54.69
2018-08-20T11:11:58.417Z,54.24
2018-08-20T11:14:26.789Z,54.72
2018-08-20T11:16:55.124Z,54.55
2018-08-20T11:19:23.489Z,54.62
2018-08-20T11:21:51.870Z,55.22
2018-08-20T11:24:20.205Z,54.86
2018-08-20T11:26:49.316Z,54.54
2018-08-20T11:29:18.285Z,55.12
2018-08-20T11:31:46.616Z,54.46
2018-08-20T11:34:14.994Z,55.48
2018-08-20T11:36:43.418Z,55.09
2018-08-20T11:39:11.683Z,54.93
2018-08-20T11:41:40.027Z,55.74
2018-08-20T11:44:08.381Z,55.62
2018-08-20T11:46:36.721Z,55.17
2018-08-20T11:49:05.101Z,55.74
2018-08-20T11:51:33.437Z,55.64
2018-08-20T11:54:01.791Z,55.92
2018-08-20T11:56:30.127Z,55.49
2018-08-20T11:58:58.457Z,55.78
2018-08-20T12:01:26.790Z,55.78
2018-08-20T12:03:56.001Z,56.14
2018-08-20T12:06:25.519Z,56.35
2018-08-20T12:08:54.016Z,57.21
2018-08-20T12:11:22.351Z,56.37
2018-08-20T12:13:51.076Z,56.41
2018-08-20T12:16:19.479Z,56.80
2018-08-20T12:18:47.876Z,56.86
2018-08-20T12:21:16.353Z,57.15
2018-08-20T12:23:44.695Z,56.46
2018-08-20T12:26:13.127Z,57.65
2018-08-20T12:28:41.481Z,57.60
2018-08-20T12:31:09.809Z,57.60
2018-08-20T12:33:38.132Z,58.56
2018-08-20T12:36:06.457Z,58.01
2018-08-20T12:38:35.051Z,57.33
2018-08-20T12:41:03.382Z,57.48
2018-08-20T12:43:31.715Z,57.95
2018-08-20T12:46:00.504Z,57.54
2018-08-20T12:48:28.969Z,57.54
2018-08-20T12:50:57.297Z,57.99
2018-08-20T12:53:25.617Z,58.25
2018-08-20T12:55:53.961Z,57.83
2018-08-20T12:58:22.602Z,59.06
2018-08-20T13:00:50.989Z,58.34
2018-08-20T13:03:19.340Z,59.16
2018-08-20T13:05:47.653Z,58.54
2018-08-20T13:08:16.000Z,58.96
2018-08-20T13:10:44.341Z,58.73
2018-08-20T13:13:12.692Z,58.79
2018-08-20T13:15:41.088Z,59.74
2018-08-20T13:18:09.476Z,59.51
2018-08-20T13:20:37.823Z,60.22
2018-08-20T13:23:06.787Z,59.28
2018-08-20T13:25:35.115Z,58.56
2018-08-20T13:28:03.540Z,59.15
2018-08-20T13:30:31.890Z,58.89
2018-08-20T13:33:00.264Z,58.64
2018-08-20T13:35:28.660Z,59.34
2018-08-20T13:37:57.019Z,59.07
2018-08-20T13:40:25.716Z,59.22
2018-08-20T13:42:54.192Z,59.91
2018-08-20T13:45:22.634Z,59.88
2018-08-20T13:47:51.064Z,59.32
2018-08-20T13:50:19.590Z,59.66
2018-08-20T13:52:48.275Z,59.58
2018-08-20T13:55:16.734Z,59.77
2018-08-20T13:57:45.954Z,59.08
2018-08-20T14:00:15.777Z,59.55
2018-08-20T14:02:44.119Z,59.32
2018-08-20T14:05:12.832Z,59.23
2018-08-20T14:07:41.193Z,59.13
2018-08-20T14:10:10.725Z,59.10
2018-08-20T14:12:40.127Z,59.70
2018-08-20T14:15:09.735Z,59.99
2018-08-20T14:17:38.832Z,59.68
2018-08-20T14:20:09.053Z,59.39
2018-08-20T14:22:37.403Z,59.32
2018-08-20T14:25:05.847Z,59.06
2018-08-20T14:27:34.160Z,59.61
2018-08-20T14:30:02.541Z,58.91
2018-08-20T14:32:31.256Z,58.84
2018-08-20T14:35:00.135Z,58.91
2018-08-20T14:37:28.503Z,59.16
2018-08-20T14:39:56.847Z,59.63
2018-08-20T14:42:25.425Z,59.96
2018-08-20T14:44:53.839Z,59.86
2018-08-20T14:47:22.188Z,59.28
2018-08-20T14:49:50.534Z,59.27
2018-08-20T14:52:18.904Z,59.35
2018-08-20T15:01:47.410Z,60.00
2018-08-20T15:04:15.743Z,59.73
2018-08-20T15:06:57.812Z,61.11
2018-08-20T15:09:27.644Z,61.19
2018-08-20T15:11:56.500Z,61.09
2018-08-20T15:14:24.884Z,60.92
2018-08-20T15:16:53.584Z,60.98
2018-08-20T15:19:21.917Z,60.92
2018-08-20T15:21:50.241Z,60.56
2018-08-20T15:24:19.269Z,61.20
2018-08-20T15:26:48.460Z,61.50
2018-08-20T15:29:17.515Z,61.08
2018-08-20T15:31:46.008Z,61.49
2018-08-20T15:34:14.384Z,61.42
2018-08-20T15:36:42.909Z,61.29
2018-08-20T15:39:11.658Z,61.00
2018-08-20T15:41:40.054Z,61.22
2018-08-20T15:44:09.649Z,61.69
2018-08-20T15:46:38.044Z,61.89
2018-08-20T15:49:06.934Z,61.53
2018-08-20T15:51:35.603Z,61.24
2018-08-20T15:54:04.002Z,61.14
2018-08-20T15:56:32.358Z,61.17
2018-08-20T15:59:00.712Z,60.91
2018-08-20T16:01:29.053Z,61.74
2018-08-20T16:03:57.415Z,61.62
2018-08-20T16:06:25.796Z,61.27
2018-08-20T16:08:54.636Z,61.75
2018-08-20T16:11:22.996Z,61.33
2018-08-20T16:13:51.359Z,60.95
2018-08-20T16:16:19.728Z,61.09
2018-08-20T16:18:48.116Z,61.61
2018-08-20T16:21:16.500Z,62.04
2018-08-20T16:23:44.876Z,61.79
2018-08-20T16:26:13.241Z,61.95
2018-08-20T16:28:41.620Z,62.37
2018-08-20T16:31:09.999Z,62.07
2018-08-20T16:33:38.359Z,62.75
2018-08-20T16:36:06.757Z,62.57
2018-08-20T16:38:35.154Z,63.03
2018-08-20T16:41:03.528Z,62.86
2018-08-20T16:43:31.897Z,63.38
2018-08-20T16:46:00.321Z,62.75
2018-08-20T16:48:28.729Z,63.24
2018-08-20T16:50:57.173Z,62.69
2018-08-20T16:53:25.511Z,63.11
2018-08-20T16:55:53.941Z,64.31
2018-08-20T16:58:22.323Z,63.06
2018-08-20T17:00:50.652Z,63.34
2018-08-20T17:03:19.009Z,62.84
2018-08-20T17:05:48.604Z,64.08
2018-08-20T17:08:21.122Z,63.62
2018-08-20T17:10:49.449Z,64.52
2018-08-20T17:13:17.785Z,63.63
2018-08-20T17:15:46.148Z,64.25
2018-08-20T17:18:14.498Z,64.76
2018-08-20T17:20:42.853Z,63.97
2018-08-20T17:23:19.527Z,64.46
2018-08-20T17:25:47.932Z,64.68
2018-08-20T17:28:23.069Z,64.80
2018-08-20T17:30:57.063Z,64.68
2018-08-20T17:33:25.477Z,64.33
2018-08-20T17:35:53.836Z,64.73
2018-08-20T17:38:22.192Z,65.29
2018-08-20T17:40:50.535Z,65.06
2018-08-20T17:43:18.879Z,64.88
2018-08-20T17:45:47.247Z,65.61
2018-08-20T17:48:25.202Z,65.73
2018-08-20T17:50:53.564Z,66.95
2018-08-20T17:53:21.901Z,66.30
2018-08-20T17:55:50.233Z,66.74
2018-08-20T17:58:18.563Z,66.15
2018-08-20T18:00:52.883Z,65.82
2018-08-20T18:03:26.360Z,65.62
2018-08-20T18:05:58.891Z,65.71
2018-08-20T18:08:28.470Z,65.65
2018-08-20T18:10:57.063Z,66.08
2018-08-20T18:13:35.156Z,66.14
2018-08-20T18:16:05.800Z,66.12
2018-08-20T18:18:34.806Z,66.62
2018-08-20T18:21:03.167Z,66.06
2018-08-20T18:23:32.993Z,67.29
2018-08-20T18:26:01.371Z,67.31
2018-08-20T18:28:39.289Z,66.79
2018-08-20T18:31:13.793Z,66.36
2018-08-20T18:33:43.021Z,66.64
2018-08-20T18:36:14.358Z,67.64
2018-08-20T18:38:47.336Z,67.22
2018-08-20T18:41:15.669Z,67.12
2018-08-20T18:43:44.791Z,66.83
2018-08-20T18:46:13.144Z,66.53
2018-08-20T18:48:42.054Z,66.85
2018-08-20T18:51:13.721Z,67.01
2018-08-20T18:53:42.469Z,66.70
2018-08-20T18:56:15.592Z,67.09
2018-08-20T18:58:44.581Z,68.51
2018-08-20T19:01:13.289Z,67.65
2018-08-20T19:03:46.679Z,67.68
2018-08-20T19:06:15.760Z,67.74
2018-08-20T19:08:44.148Z,67.69
2018-08-20T19:11:13.253Z,67.97
2018-08-20T19:13:42.239Z,67.17
2018-08-20T19:16:26.890Z,67.34
2018-08-20T19:18:55.245Z,67.40
2018-08-20T19:21:26.594Z,67.93
2018-08-20T19:23:56.570Z,67.43
2018-08-20T19:26:25.344Z,67.85
2018-08-20T19:28:53.715Z,68.24
2018-08-20T19:31:22.033Z,68.24
2018-08-20T19:33:50.388Z,68.12
2018-08-20T19:36:18.759Z,68.48
2018-08-20T19:38:47.131Z,67.91
2018-08-20T19:41:15.911Z,67.94
2018-08-20T19:43:51.367Z,68.45
2018-08-20T19:46:25.003Z,68.48
2018-08-20T19:48:58.139Z,68.51
2018-08-20T19:51:26.473Z,68.94
2018-08-20T19:53:54.825Z,68.22
2018-08-20T19:56:23.201Z,68.74
2018-08-20T19:58:51.555Z,69.23
2018-08-20T20:01:19.897Z,68.72
2018-08-20T20:03:49.547Z,68.84
2018-08-20T20:06:18.235Z,68.94
2018-08-20T20:08:46.589Z,68.15
2018-08-20T20:11:21.728Z,68.56
2018-08-20T20:13:55.455Z,69.97
2018-08-20T20:16:24.130Z,68.86
2018-08-20T20:18:52.933Z,69.30
2018-08-20T20:21:22.040Z,68.77
2018-08-20T20:23:50.463Z,68.56
2018-08-20T20:26:19.016Z,70.32
2018-08-20T20:28:47.357Z,69.74
2018-08-20T20:31:15.730Z,69.74
2018-08-20T20:33:44.136Z,69.97
2018-08-20T20:36:17.123Z,70.23
2018-08-20T20:38:46.023Z,70.42
2018-08-20T20:41:14.509Z,70.55
2018-08-20T20:43:42.858Z,69.81
2018-08-20T20:46:11.224Z,69.88
2018-08-20T20:48:39.842Z,70.34
2018-08-20T20:51:08.193Z,70.50
2018-08-20T20:53:36.529Z,70.37
2018-08-20T20:56:04.892Z,70.10
2018-08-20T20:58:34.678Z,70.87
2018-08-20T21:01:05.119Z,70.74
2018-08-20T21:03:33.896Z,69.48
2018-08-20T21:06:02.775Z,69.79
2018-08-20T21:08:35.313Z,70.29
2018-08-20T21:11:03.652Z,70.12
2018-08-20T21:13:32.016Z,69.47
2018-08-20T21:16:05.737Z,69.61
2018-08-20T21:18:35.948Z,70.29
2018-08-20T21:21:04.275Z,69.80
2018-08-20T21:23:35.405Z,68.83
2018-08-20T21:26:03.775Z,69.03
2018-08-20T21:28:39.410Z,69.29
2018-08-20T21:31:07.768Z,68.64
2018-08-20T21:33:36.094Z,68.77
2018-08-20T21:36:04.448Z,69.33
2018-08-20T21:38:33.373Z,68.46
2018-08-20T21:41:01.675Z,68.86
2018-08-20T21:43:34.172Z,69.11
2018-08-20T21:46:02.530Z,68.75
2018-08-20T21:48:30.909Z,68.45
2018-08-20T21:51:02.284Z,68.97
2018-08-20T21:53:37.416Z,68.43
2018-08-20T21:56:08.360Z,69.22
2018-08-20T21:58:38.683Z,68.06
2018-08-20T22:01:07.860Z,68.43
2018-08-20T22:03:36.206Z,68.54
2018-08-20T22:06:04.739Z,68.61
2018-08-20T22:08:33.273Z,68.01
2018-08-20T22:11:01.644Z,68.38
2018-08-20T22:13:29.975Z,67.86
2018-08-20T22:16:19.853Z,68.24
2018-08-20T22:18:53.849Z,68.08
2018-08-20T22:21:22.335Z,67.47
2018-08-20T22:23:50.680Z,67.79
2018-08-20T22:26:20.336Z,67.89
2018-08-20T22:28:51.085Z,67.91
2018-08-20T22:31:19.775Z,68.00
2018-08-20T22:33:54.832Z,68.10
2018-08-20T22:36:23.370Z,67.32
2018-08-20T22:38:52.997Z,67.42
2018-08-20T22:41:22.395Z,67.67
2018-08-20T22:43:50.877Z,67.21
2018-08-20T22:46:20.076Z,67.37
2018-08-20T22:48:51.526Z,66.67
2018-08-20T22:51:20.526Z,66.87
2018-08-20T22:53:54.123Z,66.33
2018-08-20T22:56:24.983Z,66.01
2018-08-20T22:58:56.798Z,66.03
2018-08-20T23:01:25.141Z,66.51
2018-08-20T23:03:53.448Z,66.51
2018-08-20T23:06:21.905Z,67.04
2018-08-20T23:08:50.296Z,66.61
2018-08-20T23:11:34.187Z,66.25
2018-08-20T23:14:02.532Z,65.75
2018-08-20T23:16:30.880Z,66.44
2018-08-20T23:18:59.257Z,66.34
2018-08-20T23:21:32.205Z,65.92
2018-08-20T23:24:00.507Z,65.87
2018-08-20T23:26:28.935Z,65.87
2018-08-20T23:28:57.277Z,65.79
2018-08-20T23:31:25.625Z,66.12
2018-08-20T23:33:53.923Z,66.09
2018-08-20T23:36:22.273Z,66.09
2018-08-20T23:38:50.712Z,66.08
2018-08-20T23:41:19.041Z,66.05
2018-08-20T23:43:52.688Z,65.52
2018-08-20T23:46:29.388Z,66.13
2018-08-20T23:48:57.934Z,65.36
2018-08-20T23:51:26.277Z,65.47
2018-08-20T23:53:54.621Z,65.60
2018-08-20T23:56:22.965Z,66.03
2018-08-20T23:58:51.304Z,65.38
